Arctic Village Airport Arctic Village US
ICAO: PARC
IATA:
Category: Medium
Scheduled Services:

Elevation: 2092 ft
TransAlt. 18000 ft.

Airport Communications:
ANCHORAGE CNTR:135
AWOS 3:135.75
CTAF:122.9
FAIRBANKS RDO:122.1

PARC Zoom In..

If you have problems with the map follow the link
https://www.worldairports.se/pages/airport.php?
ICAO=PARC

Runways:

(A) RW 02 length 4500 ft width 75 ft
---- / hdg 19

(B) RW 20 length 4500 ft width 75 ft
---- / hdg 199

Location; PARC
Day. 24 / Time. 10.56 Zulu
* Altimeter: 29.87
* Temperature: -14° c. -6.8°f.
* Wind from: 000° Speed 00 kn.
Dewpoint: -16° c.
Visibility: 9 Statute Miles.
Clouds: Clear (automated report).

PARC 241056Z AUTO 00000KT 9SM CLR M14/M16 A2987 RMK AO2 SLP178 T11391156 FZRANO


Wind - Calm.

 
 
jpsmedia.com for Web Design worldairports.se 2019   terms of use